createdAt,value
2022-08-22T00:02:09.013Z,18.02
2022-08-22T00:02:43.111Z,19.60
2022-08-22T00:04:48.978Z,17.75
2022-08-22T00:07:32.514Z,17.74
2022-08-22T00:10:11.516Z,17.86
2022-08-22T00:12:59.787Z,17.75
2022-08-22T00:15:43.134Z,17.57
2022-08-22T00:18:21.649Z,17.45
2022-08-22T00:21:04.427Z,17.37
2022-08-22T00:23:41.535Z,17.40
2022-08-22T00:26:25.359Z,17.54
2022-08-22T00:29:02.276Z,17.70
2022-08-22T00:31:37.852Z,17.74
2022-08-22T00:34:15.368Z,17.57
2022-08-22T00:36:51.889Z,17.55
2022-08-22T00:39:29.972Z,17.50
2022-08-22T00:42:29.572Z,17.53
2022-08-22T00:45:48.898Z,17.72
2022-08-22T00:48:47.571Z,17.93
2022-08-22T00:51:40.855Z,17.99
2022-08-22T00:54:25.608Z,17.72
2022-08-22T00:57:15.047Z,17.36
2022-08-22T01:00:08.752Z,17.27
2022-08-22T01:02:53.191Z,17.45
2022-08-22T01:05:38.762Z,17.56
2022-08-22T01:08:25.495Z,17.48
2022-08-22T01:11:13.183Z,17.27
2022-08-22T01:14:01.509Z,17.19
2022-08-22T01:17:01.814Z,17.15
2022-08-22T01:19:57.741Z,17.13
2022-08-22T01:22:55.384Z,17.13
2022-08-22T01:25:55.707Z,17.26
2022-08-22T01:28:58.833Z,17.06
2022-08-22T01:32:12.517Z,16.92
2022-08-22T01:35:18.440Z,16.87
2022-08-22T01:38:10.093Z,16.62
2022-08-22T01:41:18.050Z,16.48
2022-08-22T01:44:08.881Z,16.29
2022-08-22T01:46:52.603Z,16.26
2022-08-22T01:49:29.311Z,16.36
2022-08-22T01:52:05.664Z,16.64
2022-08-22T01:54:49.097Z,16.97
2022-08-22T01:57:21.139Z,17.26
2022-08-22T01:59:55.438Z,17.45
2022-08-22T02:02:52.647Z,17.52
2022-08-22T02:05:31.754Z,17.43
2022-08-22T02:08:15.385Z,17.25
2022-08-22T02:10:56.216Z,17.11
2022-08-22T02:13:37.748Z,17.20
2022-08-22T02:16:16.872Z,17.30
2022-08-22T02:19:00.713Z,17.41
2022-08-22T02:21:47.281Z,17.47
2022-08-22T02:24:29.787Z,17.61
2022-08-22T02:27:14.288Z,17.63
2022-08-22T02:29:50.836Z,17.71
2022-08-22T02:32:29.024Z,17.72
2022-08-22T02:35:04.655Z,17.67
2022-08-22T02:37:42.037Z,17.62
2022-08-22T02:40:18.872Z,17.58
2022-08-22T02:42:57.163Z,17.58
2022-08-22T02:45:47.563Z,17.50
2022-08-22T02:48:27.999Z,17.42
2022-08-22T02:51:05.324Z,17.25
2022-08-22T02:53:46.214Z,17.11
2022-08-22T02:56:22.772Z,17.12
2022-08-22T02:58:59.949Z,17.17
2022-08-22T03:01:42.748Z,17.18
2022-08-22T03:04:46.726Z,17.16
2022-08-22T03:07:30.707Z,17.08
2022-08-22T03:10:12.061Z,17.11
2022-08-22T03:12:57.395Z,17.22
2022-08-22T03:15:35.472Z,17.37
2022-08-22T03:18:17.770Z,17.50
2022-08-22T03:20:54.022Z,17.41
2022-08-22T03:23:35.333Z,17.19
2022-08-22T03:26:16.696Z,16.93
2022-08-22T03:28:59.721Z,16.72
2022-08-22T03:31:33.420Z,16.73
2022-08-22T03:34:22.585Z,16.92
2022-08-22T03:37:12.233Z,17.16
2022-08-22T03:39:51.221Z,17.28
2022-08-22T03:42:44.980Z,17.41
2022-08-22T03:45:43.086Z,17.38
2022-08-22T03:48:48.501Z,17.44
2022-08-22T03:51:37.232Z,17.55
2022-08-22T03:54:52.371Z,17.67
2022-08-22T03:57:55.478Z,17.77
2022-08-22T04:01:00.202Z,17.84
2022-08-22T04:03:54.834Z,17.87
2022-08-22T04:06:56.874Z,17.86
2022-08-22T04:09:54.480Z,17.71
2022-08-22T04:12:48.508Z,17.44
2022-08-22T04:15:41.000Z,17.20
2022-08-22T04:18:44.668Z,17.31
2022-08-22T04:21:32.042Z,17.50
2022-08-22T04:24:17.020Z,17.67
2022-08-22T04:26:52.867Z,17.80
2022-08-22T04:29:28.853Z,17.90
2022-08-22T04:32:07.202Z,17.97
2022-08-22T04:34:43.714Z,17.97
2022-08-22T04:37:24.941Z,18.01
2022-08-22T04:40:01.806Z,17.99
2022-08-22T04:42:37.219Z,17.98
2022-08-22T04:45:15.415Z,18.02
2022-08-22T04:47:53.905Z,17.91
2022-08-22T04:50:30.500Z,17.86
2022-08-22T04:53:18.017Z,17.87
2022-08-22T04:56:05.378Z,17.83
2022-08-22T04:58:48.798Z,17.88
2022-08-22T05:01:23.298Z,17.82
2022-08-22T05:03:58.424Z,17.62
2022-08-22T05:06:33.685Z,17.55
2022-08-22T05:09:14.212Z,17.47
2022-08-22T05:11:50.320Z,17.40
2022-08-22T05:14:26.732Z,17.41
2022-08-22T05:17:00.908Z,17.52
2022-08-22T05:19:35.492Z,17.47
2022-08-22T05:22:13.305Z,17.49
2022-08-22T05:24:47.781Z,17.48
2022-08-22T05:27:22.188Z,17.49
2022-08-22T05:29:58.771Z,17.44
2022-08-22T05:32:34.400Z,17.39
2022-08-22T05:35:09.686Z,17.39
2022-08-22T05:37:45.093Z,17.39
2022-08-22T05:40:21.607Z,17.44
2022-08-22T05:42:53.647Z,17.57
2022-08-22T05:45:26.396Z,17.57
2022-08-22T05:48:04.302Z,17.67
2022-08-22T05:50:41.048Z,17.81
2022-08-22T05:53:16.666Z,17.84
2022-08-22T05:55:57.955Z,17.79
2022-08-22T05:58:49.257Z,17.72
2022-08-22T06:01:31.365Z,17.77
2022-08-22T06:04:16.525Z,17.90
2022-08-22T06:06:57.566Z,17.93
2022-08-22T06:09:36.013Z,17.91
2022-08-22T06:12:21.940Z,17.92
2022-08-22T06:15:02.576Z,17.92
2022-08-22T06:17:48.082Z,17.94
2022-08-22T06:20:28.660Z,17.96
2022-08-22T06:23:02.601Z,17.98
2022-08-22T06:25:36.094Z,18.01
2022-08-22T06:28:14.880Z,18.03
2022-08-22T06:30:49.496Z,18.07
2022-08-22T06:33:27.531Z,18.08
2022-08-22T06:36:21.231Z,18.05
2022-08-22T06:39:07.648Z,18.06
2022-08-22T06:41:42.388Z,18.13
2022-08-22T06:44:19.209Z,18.23
2022-08-22T06:46:52.129Z,18.33
2022-08-22T06:49:26.201Z,18.42
2022-08-22T06:52:02.999Z,18.49
2022-08-22T06:54:38.045Z,18.55
2022-08-22T06:57:27.161Z,18.59
2022-08-22T06:59:59.989Z,18.65
2022-08-22T07:02:36.809Z,18.72
2022-08-22T07:05:11.094Z,18.76
2022-08-22T07:07:42.050Z,18.76
2022-08-22T07:10:16.010Z,18.80
2022-08-22T07:12:50.888Z,18.86
2022-08-22T07:15:35.422Z,18.94
2022-08-22T07:18:08.928Z,19.04
2022-08-22T07:20:45.321Z,19.09
2022-08-22T07:23:31.679Z,19.12
2022-08-22T07:26:30.054Z,19.17
2022-08-22T07:29:11.271Z,19.19
2022-08-22T07:31:53.371Z,19.23
2022-08-22T07:34:40.707Z,19.27
2022-08-22T07:37:20.549Z,19.29
2022-08-22T07:39:56.229Z,19.31
2022-08-22T07:42:38.514Z,19.35
2022-08-22T07:45:13.553Z,19.40
2022-08-22T07:48:06.886Z,19.46
2022-08-22T07:50:44.058Z,19.54
2022-08-22T07:53:23.412Z,19.61
2022-08-22T07:55:56.196Z,19.70
2022-08-22T07:58:29.725Z,19.77
2022-08-22T08:01:01.297Z,19.85
2022-08-22T08:03:33.087Z,19.91
2022-08-22T08:06:05.501Z,19.99
2022-08-22T08:08:41.804Z,20.10
2022-08-22T08:11:16.080Z,20.19
2022-08-22T08:13:52.777Z,20.33
2022-08-22T08:16:28.008Z,20.44
2022-08-22T08:19:01.821Z,20.57
2022-08-22T08:21:37.431Z,20.73
2022-08-22T08:24:15.105Z,20.94
2022-08-22T08:27:05.155Z,21.18
2022-08-22T08:29:37.413Z,21.40
2022-08-22T08:32:11.770Z,21.62
2022-08-22T08:34:45.700Z,21.85
2022-08-22T08:37:23.108Z,22.08
2022-08-22T08:39:58.114Z,22.31
2022-08-22T08:43:00.276Z,22.48
2022-08-22T08:45:58.291Z,22.72
2022-08-22T08:48:53.372Z,22.96
2022-08-22T08:51:43.176Z,23.10
2022-08-22T08:54:55.538Z,23.14
2022-08-22T08:57:42.168Z,23.23
2022-08-22T09:00:18.983Z,23.36
2022-08-22T09:02:58.891Z,23.44
2022-08-22T09:05:58.785Z,23.48
2022-08-22T09:08:55.516Z,23.52
2022-08-22T09:12:10.863Z,23.47
2022-08-22T09:15:15.065Z,23.39
2022-08-22T09:18:18.386Z,23.26
2022-08-22T09:21:14.154Z,23.17
2022-08-22T09:24:09.742Z,23.19
2022-08-22T09:26:51.433Z,23.20
2022-08-22T09:29:55.229Z,23.14
2022-08-22T09:32:44.113Z,23.03
2022-08-22T09:35:25.225Z,22.96
2022-08-22T09:38:19.590Z,22.99
2022-08-22T09:40:56.195Z,22.98
2022-08-22T09:43:45.734Z,22.91
2022-08-22T09:46:31.388Z,22.82
2022-08-22T09:49:14.139Z,22.70
2022-08-22T09:51:58.643Z,22.68
2022-08-22T09:54:35.921Z,22.72
2022-08-22T09:57:22.442Z,22.77
2022-08-22T10:00:16.157Z,22.82
2022-08-22T10:02:55.204Z,22.75
2022-08-22T10:05:40.514Z,22.71
2022-08-22T10:08:31.452Z,22.68
2022-08-22T10:11:24.594Z,22.60
2022-08-22T10:14:01.896Z,22.65
2022-08-22T10:16:48.735Z,22.69
2022-08-22T10:19:26.288Z,22.83
2022-08-22T10:25:07.592Z,23.20
2022-08-22T10:28:10.627Z,23.28
2022-08-22T10:30:54.803Z,23.34
2022-08-22T10:33:33.423Z,23.42
2022-08-22T10:36:11.741Z,23.54
2022-08-22T10:38:47.221Z,23.64
2022-08-22T10:41:30.535Z,23.81
2022-08-22T10:44:10.945Z,23.87
2022-08-22T10:46:49.891Z,23.93
2022-08-22T10:49:29.270Z,23.90
2022-08-22T10:52:15.853Z,23.89
2022-08-22T10:54:52.619Z,23.85
2022-08-22T10:57:42.720Z,23.86
2022-08-22T11:00:38.559Z,23.91
2022-08-22T11:03:25.008Z,23.91
2022-08-22T11:06:00.058Z,23.82
2022-08-22T11:08:55.084Z,23.73
2022-08-22T11:11:43.453Z,23.65
2022-08-22T11:14:38.817Z,23.59
2022-08-22T11:17:27.557Z,23.57
2022-08-22T11:20:19.481Z,23.53
2022-08-22T11:23:08.143Z,23.58
2022-08-22T11:25:56.662Z,23.65
2022-08-22T11:29:02.839Z,23.67
2022-08-22T11:32:00.390Z,23.71
2022-08-22T11:34:57.100Z,23.69
2022-08-22T11:37:54.918Z,23.64
2022-08-22T11:40:42.529Z,23.61
2022-08-22T11:43:39.318Z,23.61
2022-08-22T11:46:25.824Z,23.52
2022-08-22T11:49:14.437Z,23.37
2022-08-22T11:52:00.845Z,23.30
2022-08-22T11:54:42.997Z,23.23
2022-08-22T11:57:18.229Z,23.13
2022-08-22T12:00:10.737Z,23.08
2022-08-22T12:02:50.421Z,23.03
2022-08-22T12:05:26.190Z,23.01
2022-08-22T12:08:05.226Z,23.01
2022-08-22T12:10:44.320Z,23.04
2022-08-22T12:13:34.142Z,22.98
2022-08-22T12:16:15.832Z,22.89
2022-08-22T12:18:56.171Z,22.87
2022-08-22T12:21:53.971Z,22.89
2022-08-22T12:24:49.397Z,22.91
2022-08-22T12:27:48.093Z,22.96
2022-08-22T12:30:29.885Z,22.95
2022-08-22T12:33:28.245Z,22.93
2022-08-22T12:36:26.338Z,22.84
2022-08-22T12:39:37.461Z,22.83
2022-08-22T12:42:31.668Z,22.84
2022-08-22T12:45:27.095Z,22.90
2022-08-22T12:48:10.542Z,22.99
2022-08-22T12:50:48.480Z,23.00
2022-08-22T12:53:35.800Z,22.98
2022-08-22T12:56:16.620Z,22.90
2022-08-22T12:59:21.155Z,22.86
2022-08-22T13:01:54.110Z,22.88
2022-08-22T13:04:33.361Z,22.85
2022-08-22T13:07:22.625Z,22.84
2022-08-22T13:09:58.813Z,22.83
2022-08-22T13:12:34.244Z,22.80
2022-08-22T13:15:17.794Z,22.75
2022-08-22T13:17:53.126Z,22.67
2022-08-22T13:20:28.457Z,22.62
2022-08-22T13:23:00.918Z,22.60
2022-08-22T13:25:53.180Z,22.54
2022-08-22T13:28:27.344Z,22.53
2022-08-22T13:30:59.871Z,22.49
2022-08-22T13:33:36.708Z,22.38
2022-08-22T13:36:15.532Z,22.32
2022-08-22T13:38:54.291Z,22.28
2022-08-22T13:41:29.688Z,22.25
2022-08-22T13:44:17.786Z,22.22
2022-08-22T13:47:12.835Z,22.22
2022-08-22T13:49:43.669Z,22.25
2022-08-22T13:52:30.395Z,22.25
2022-08-22T13:55:12.614Z,22.23
2022-08-22T13:57:51.911Z,22.17
2022-08-22T14:01:07.475Z,22.11
2022-08-22T14:03:49.236Z,22.08
2022-08-22T14:06:38.282Z,22.06
2022-08-22T14:09:31.577Z,22.03
2022-08-22T14:12:13.665Z,22.02
2022-08-22T14:14:47.262Z,22.05
2022-08-22T14:17:21.943Z,22.08
2022-08-22T14:20:01.724Z,22.11
2022-08-22T14:22:36.359Z,22.12
2022-08-22T14:25:17.935Z,22.10
2022-08-22T14:28:06.468Z,22.11
2022-08-22T14:31:00.536Z,22.09
2022-08-22T14:33:39.898Z,22.07
2022-08-22T14:36:18.493Z,22.07
2022-08-22T14:38:56.234Z,22.01
2022-08-22T14:41:52.306Z,21.93
2022-08-22T14:44:28.012Z,21.90
2022-08-22T14:47:03.786Z,21.89
2022-08-22T14:49:49.670Z,21.92
2022-08-22T14:52:38.696Z,21.94
2022-08-22T14:55:28.355Z,21.90
2022-08-22T14:58:05.834Z,21.88
2022-08-22T15:00:40.893Z,21.83
2022-08-22T15:03:23.221Z,21.79
2022-08-22T15:05:57.460Z,21.75
2022-08-22T15:08:33.936Z,21.72
2022-08-22T15:11:15.334Z,21.69
2022-08-22T15:13:57.832Z,21.66
2022-08-22T15:16:33.818Z,21.62
2022-08-22T15:19:22.182Z,21.61
2022-08-22T15:22:04.889Z,21.59
2022-08-22T15:24:57.507Z,21.58
2022-08-22T15:27:32.809Z,21.56
2022-08-22T15:30:07.511Z,21.56
2022-08-22T15:32:51.597Z,21.54
2022-08-22T15:35:32.192Z,21.52
2022-08-22T15:38:05.866Z,21.51
2022-08-22T15:40:41.651Z,21.48
2022-08-22T15:43:26.767Z,21.46
2022-08-22T15:46:27.388Z,21.44
2022-08-22T15:49:01.755Z,21.40
2022-08-22T15:51:41.986Z,21.39
2022-08-22T15:54:25.363Z,21.37
2022-08-22T15:57:19.519Z,21.34
2022-08-22T16:00:00.322Z,21.27
2022-08-22T16:02:35.340Z,21.21
2022-08-22T16:05:26.415Z,21.14
2022-08-22T16:08:06.475Z,21.11
2022-08-22T16:10:43.120Z,21.10
2022-08-22T16:13:33.656Z,21.09
2022-08-22T16:16:09.133Z,21.09
2022-08-22T16:19:14.596Z,21.10
2022-08-22T16:22:12.971Z,21.09
2022-08-22T16:25:06.200Z,21.05
2022-08-22T16:27:55.514Z,21.00
2022-08-22T16:30:39.079Z,20.96
2022-08-22T16:33:18.324Z,20.94
2022-08-22T16:36:24.557Z,20.91
2022-08-22T16:38:58.367Z,20.88
2022-08-22T16:41:40.249Z,20.84
2022-08-22T16:44:40.011Z,20.80
2022-08-22T16:47:15.057Z,20.78
2022-08-22T16:50:01.781Z,20.75
2022-08-22T16:52:57.942Z,20.74
2022-08-22T16:56:08.975Z,20.75
2022-08-22T16:59:19.700Z,20.76
2022-08-22T17:02:10.830Z,20.76
2022-08-22T17:04:51.922Z,20.76
2022-08-22T17:07:37.124Z,20.75
2022-08-22T17:10:30.973Z,20.76
2022-08-22T17:13:18.356Z,20.75
2022-08-22T17:16:15.550Z,20.74
2022-08-22T17:19:05.129Z,20.70
2022-08-22T17:21:51.787Z,20.69
2022-08-22T17:24:37.223Z,20.67
2022-08-22T17:27:23.409Z,20.66
2022-08-22T17:30:07.016Z,20.65
2022-08-22T17:32:59.727Z,20.62
2022-08-22T17:35:46.998Z,20.61
2022-08-22T17:38:26.335Z,20.61
2022-08-22T17:41:05.412Z,20.60
2022-08-22T17:43:51.529Z,20.55
2022-08-22T17:46:37.659Z,20.56
2022-08-22T17:49:26.944Z,20.52
2022-08-22T17:52:07.687Z,20.48
2022-08-22T17:54:42.317Z,20.46
2022-08-22T17:57:24.090Z,20.45
2022-08-22T17:59:59.520Z,20.41
2022-08-22T18:02:33.798Z,20.40
2022-08-22T18:05:11.635Z,20.38
2022-08-22T18:08:01.757Z,20.34
2022-08-22T18:10:42.854Z,20.33
2022-08-22T18:13:20.319Z,20.30
2022-08-22T18:15:56.666Z,20.27
2022-08-22T18:18:34.544Z,20.22
2022-08-22T18:21:12.071Z,20.16
2022-08-22T18:23:49.823Z,20.08
2022-08-22T18:26:29.721Z,20.02
2022-08-22T18:29:08.600Z,20.00
2022-08-22T18:31:49.322Z,19.99
2022-08-22T18:34:30.127Z,19.99
2022-08-22T18:37:07.274Z,19.96
2022-08-22T18:39:48.466Z,19.91
2022-08-22T18:42:31.385Z,19.87
2022-08-22T18:45:02.180Z,19.82
2022-08-22T18:47:35.827Z,19.78
2022-08-22T18:50:32.530Z,19.76
2022-08-22T18:53:04.223Z,19.74
2022-08-22T18:55:51.476Z,19.73
2022-08-22T18:58:42.671Z,19.71
2022-08-22T19:01:31.172Z,19.69
2022-08-22T19:04:45.756Z,19.67
2022-08-22T19:07:52.137Z,19.65
2022-08-22T19:10:47.342Z,19.64
2022-08-22T19:13:47.551Z,19.63
2022-08-22T19:16:46.530Z,19.61
2022-08-22T19:19:21.545Z,19.59
2022-08-22T19:22:29.159Z,19.56
2022-08-22T19:25:18.662Z,19.54
2022-08-22T19:28:26.775Z,19.54
2022-08-22T19:31:28.646Z,19.53
2022-08-22T19:34:17.985Z,19.55
2022-08-22T19:37:09.393Z,19.54
2022-08-22T19:39:54.681Z,19.52
2022-08-22T19:42:41.404Z,19.49
2022-08-22T19:45:25.691Z,19.43
2022-08-22T19:48:02.098Z,19.40
2022-08-22T19:50:39.232Z,19.40
2022-08-22T19:53:35.474Z,19.39
2022-08-22T19:56:13.515Z,19.38
2022-08-22T19:58:56.338Z,19.35
2022-08-22T20:01:42.552Z,19.34
2022-08-22T20:04:37.256Z,19.33
2022-08-22T20:07:17.172Z,19.33
2022-08-22T20:09:57.311Z,19.34
2022-08-22T20:12:50.140Z,19.34
2022-08-22T20:15:23.160Z,19.32
2022-08-22T20:21:02.915Z,19.28
2022-08-22T20:23:34.548Z,19.31
2022-08-22T20:26:07.418Z,19.31
2022-08-22T20:28:48.899Z,19.29
2022-08-22T20:31:28.191Z,19.28
2022-08-22T20:34:03.252Z,19.35
2022-08-22T20:36:34.568Z,19.43
2022-08-22T20:39:09.482Z,19.53
2022-08-22T20:41:43.731Z,19.60
2022-08-22T20:44:20.794Z,19.72
2022-08-22T20:46:57.574Z,19.82
2022-08-22T20:49:32.562Z,19.87
2022-08-22T20:52:05.938Z,19.95
2022-08-22T20:54:39.993Z,20.04
2022-08-22T20:57:17.162Z,20.13
2022-08-22T20:59:55.008Z,20.19
2022-08-22T21:02:28.643Z,20.21
2022-08-22T21:05:03.757Z,20.22
2022-08-22T21:07:37.573Z,20.24
2022-08-22T21:10:33.981Z,20.27
2022-08-22T21:13:11.553Z,20.28
2022-08-22T21:15:45.597Z,20.29
2022-08-22T21:18:29.919Z,20.29
2022-08-22T21:21:16.922Z,20.29
2022-08-22T21:23:50.306Z,20.32
2022-08-22T21:26:27.459Z,20.36
2022-08-22T21:29:02.091Z,20.38
2022-08-22T21:31:36.086Z,20.23
2022-08-22T21:34:13.114Z,20.11
2022-08-22T21:36:44.310Z,20.00
2022-08-22T21:39:21.026Z,19.82
2022-08-22T21:41:53.952Z,19.64
2022-08-22T21:44:34.516Z,19.56
2022-08-22T21:47:30.191Z,19.58
2022-08-22T21:50:25.897Z,19.63
2022-08-22T21:53:11.305Z,19.66
2022-08-22T21:55:47.039Z,19.67
2022-08-22T21:58:37.185Z,19.68
2022-08-22T22:01:32.097Z,19.62
2022-08-22T22:04:03.043Z,19.57
2022-08-22T22:06:33.766Z,19.60
2022-08-22T22:09:04.475Z,19.61
2022-08-22T22:11:35.301Z,19.65
2022-08-22T22:14:06.488Z,19.61
2022-08-22T22:16:38.392Z,19.58
2022-08-22T22:19:11.167Z,19.57
2022-08-22T22:21:41.826Z,19.56
2022-08-22T22:24:12.596Z,19.57
2022-08-22T22:26:43.323Z,19.54
2022-08-22T22:29:14.008Z,19.54
2022-08-22T22:31:44.860Z,19.57
2022-08-22T22:34:15.941Z,19.54
2022-08-22T22:36:46.886Z,19.49
2022-08-22T22:39:18.276Z,19.48
2022-08-22T22:41:49.003Z,19.48
2022-08-22T22:44:22.236Z,19.49
2022-08-22T22:46:56.794Z,19.50
2022-08-22T22:49:27.451Z,19.49
2022-08-22T22:51:58.150Z,19.51
2022-08-22T22:54:29.645Z,19.54
2022-08-22T22:57:00.664Z,19.52
2022-08-22T22:59:32.598Z,19.50
2022-08-22T23:02:06.211Z,19.50
2022-08-22T23:04:39.930Z,19.50
2022-08-22T23:07:12.119Z,19.52
2022-08-22T23:09:44.689Z,19.54
2022-08-22T23:12:16.333Z,19.57
2022-08-22T23:14:47.086Z,19.57
2022-08-22T23:17:18.021Z,19.56
2022-08-22T23:19:48.895Z,19.54
2022-08-22T23:22:19.747Z,19.53
2022-08-22T23:24:52.078Z,19.51
2022-08-22T23:27:22.915Z,19.51
2022-08-22T23:29:53.697Z,19.49
2022-08-22T23:32:24.377Z,19.37
2022-08-22T23:34:56.285Z,19.18
2022-08-22T23:37:27.264Z,19.11
2022-08-22T23:39:57.994Z,19.13
2022-08-22T23:42:29.789Z,19.12
2022-08-22T23:45:00.634Z,19.10
2022-08-22T23:47:31.356Z,19.17
2022-08-22T23:50:05.984Z,19.21
2022-08-22T23:52:37.301Z,19.24
2022-08-22T23:55:09.663Z,19.27
2022-08-22T23:57:40.469Z,19.28
